Terminal Aerodrome Forecast
Issued by NWS

Home | Current Version | Previous Version | Text Only | Print | Product List | Glossary On
Versions: 1 2 3 4 5 6 7 8 9 10 11 12 13 14 15 16 17 18 19 20 21 22 23 24 25 26 27 28 29 30 31 32 33 34 35 36 37
000
FTAK31 PAFA 022325
TAFAOM
TAF
PAOM 022325Z 0300/0324 09015G23KT P6SM SCT060 OVC090
     FM030800 09014KT P6SM OVC050
     FM031200 12011KT P6SM VCSH BKN025 OVC040
     FM031500 12008KT P6SM VCSH SCT007 BKN015=

USA.gov is the U.S. government's official web portal to all federal, state and local government web resources and services.